2022年9月27日

时间 代码 天气 温度 能见度 天花板 METAR/SPECI
11:50
V
10 °C 10 km+ 4.600 ft 240° 240° 6 kt METAR EDWE 270950Z 24006KT 9999 BKN046 10/09 Q0994 RERA
11:20
M
10 °C 6 km 4.000 ft 270° 270° 8 kt METAR EDWE 270920Z 27008KT 240V300 6000 -RA SCT030 OVC040 10/09 Q0994 RESHRA
10:50
M
11 °C 10 km+ 2.400 ft 250° 250° 7 kt METAR EDWE 270850Z 25007KT 9999 FEW019 BKN024 BKN028 11/09 Q0994
10:20
V
11 °C 10 km+ 3.700 ft 250° 250° 7 kt METAR EDWE 270820Z 25007KT 9999 BKN037 11/09 Q0994
09:50
V
10 °C 10 km+ 3.100 ft 270° 270° 7 kt METAR EDWE 270750Z 27007KT 240V310 9999 FEW014 BKN031 BKN040 10/09 Q0994
09:20
V
10 °C 10 km+ 4.600 ft 260° 260° 6 kt METAR EDWE 270720Z 26006KT 9999 OVC046 10/09 Q0993
08:50
V
10 °C 10 km+ 4.800 ft 250° 250° 6 kt METAR EDWE 270650Z 25006KT 9999 SCT034 OVC048 10/09 Q0993
07:50
V
10 °C 10 km+ 4.000 ft 210° 210° 4 kt METAR EDWE 270550Z 21004KT 9999 FEW028 BKN040 OVC050 10/09 Q0993 RERA
07:20
M
10 °C 8 km 2.400 ft 250° 250° 3 kt METAR EDWE 270520Z 25003KT 8000 RA SCT013 BKN024 OVC041 10/09 Q0993
06:50
M
10 °C 7 km 2.000 ft 260° 260° 7 kt METAR EDWE 270450Z 26007KT 230V300 7000 RA FEW012 BKN020 BKN038 10/09 Q0992 REDZ
06:20
V
10 °C 10 km+ - 280° 280° 5 kt METAR EDWE 270420Z 28005KT 250V310 9999 DZ SCT029 10/08 Q0992
05:50
V
10 °C 10 km+ 6.200 ft 300° 300° 6 kt METAR EDWE 270350Z AUTO 30006KT 9999 // FEW021/// SCT048/// OVC062/// 10/09 Q0992
05:20
M
10 °C 10 km+ 2.000 ft 250° 250° 5 kt METAR EDWE 270320Z AUTO 25005KT 9999 // BKN020/// OVC093/// 10/09 Q0992
04:50
V
10 °C 9 km 3.900 ft 230° 230° 5 kt METAR EDWE 270250Z AUTO 23005KT 9000 // SCT029/// OVC039/// 10/09 Q0992
04:20
I
10 °C 2,7 km 4.000 ft 270° 270° 5 kt METAR EDWE 270220Z AUTO 27005KT 2700 // SCT019/// SCT027/// OVC040/// 10/09 Q0993
03:50
M
10 °C 10 km+ 2.600 ft 270° 270° 6 kt METAR EDWE 270150Z AUTO 27006KT 9999 // FEW017/// OVC026/// 10/09 Q0993
03:20
M
10 °C 10 km+ 2.000 ft 250° 250° 5 kt METAR EDWE 270120Z AUTO 25005KT 9999 // OVC020/// 10/10 Q0992
02:50
M
10 °C 10 km+ 2.500 ft 240° 240° 3 kt METAR EDWE 270050Z AUTO 24003KT 9999 // FEW022/// BKN025/// BKN052/// 10/09 Q0992
02:20
V
11 °C 10 km+ 5.300 ft Var Var 2 kt METAR EDWE 270020Z AUTO VRB02KT 9999 // FEW022/// OVC053/// 11/09 Q0992
01:50
V
10 °C 10 km+ 6.600 ft 210° 210° 2 kt METAR EDWE 262350Z AUTO 21002KT 9999 // SCT054/// BKN066/// OVC100/// 10/10 Q0992
01:20
V
10 °C 10 km+ 4.200 ft 350° 350° 3 kt METAR EDWE 262320Z AUTO 35003KT 280V020 9999 // SCT025/// BKN042/// OVC100/// 10/09 Q0993
00:50
M
11 °C 5 km 3.000 ft 320° 320° 9 kt METAR EDWE 262250Z AUTO 32009KT 5000 // FEW013/// SCT025/// OVC030/// 11/10 Q0993
00:20
V
11 °C 10 km+ 8.000 ft 230° 230° 3 kt METAR EDWE 262220Z AUTO 23003KT 9999 // FEW035/// SCT065/// OVC080/// 11/10 Q0993

2022年9月26日

时间 代码 天气 温度 能见度 天花板 METAR/SPECI
23:50
V
11 °C 10 km+ 6.700 ft 240° 240° 5 kt METAR EDWE 262150Z AUTO 24005KT 9999 // FEW054/// BKN067/// OVC079/// 11/10 Q0993
23:20
V
11 °C 10 km+ 3.800 ft 260° 260° 6 kt METAR EDWE 262120Z AUTO 26006KT 9999 // FEW019/// OVC038/// 11/10 Q0993
22:50
V
11 °C 10 km+ 5.400 ft 250° 250° 6 kt METAR EDWE 262050Z AUTO 25006KT 9999 // SCT024/// BKN054/// BKN120/// 11/10 Q0993
22:20
V
11 °C 10 km+ 12.000 ft 240° 240° 3 kt METAR EDWE 262020Z AUTO 24003KT 9999 // FEW034/// SCT048/// OVC120/// 11/10 Q0993
21:50
V
11 °C 10 km+ 5.600 ft 230° 230° 5 kt METAR EDWE 261950Z AUTO 23005KT 9999 // FEW021/// BKN056/// BKN120/// 11/10 Q0993
21:20
V
11 °C 10 km+ 6.200 ft 230° 230° 4 kt METAR EDWE 261920Z AUTO 23004KT 9999 // FEW035/// OVC062/// 11/10 Q0993
20:50
V
12 °C 10 km+ 24.000 ft 210° 210° 6 kt METAR EDWE 261850Z AUTO 21006KT 9999 // SCT053/// BKN240/// 12/11 Q0993
05:50
V
11 °C 10 km+ 6.300 ft 200° 200° 10 kt METAR EDWE 260350Z AUTO 20010KT 9999 // FEW034/// OVC063/// 11/09 Q1002
05:20
V
11 °C 10 km+ 3.300 ft 210° 210° 9 kt METAR EDWE 260320Z AUTO 21009KT 9999 // BKN033/// OVC069/// 11/09 Q1003
04:50
V
12 °C 10 km+ 5.300 ft 200° 200° 10 kt METAR EDWE 260250Z AUTO 20010KT 170V230 9999 // SCT034/// SCT042/// OVC053/// 12/09 Q1003
04:20
V
12 °C 10 km+ 5.300 ft 200° 200° 10 kt METAR EDWE 260220Z AUTO 20010KT 9999 // BKN053/// BKN075/// OVC110/// 12/09 Q1004
03:50
V
12 °C 10 km+ 7.000 ft 200° 200° 11 kt METAR EDWE 260150Z AUTO 20011KT 9999 // OVC070/// 12/09 Q1004
03:20
V
12 °C 10 km+ 7.000 ft 200° 200° 10 kt METAR EDWE 260120Z AUTO 20010KT 150V220 9999 // BKN070/// BKN140/// 12/09 Q1004
02:50
V
12 °C 10 km+ 13.000 ft 200° 200° 9 kt METAR EDWE 260050Z AUTO 20009KT 180V240 9999 // FEW063/// SCT072/// BKN130/// 12/08 Q1005
02:20
V
12 °C 10 km+ 7.000 ft 210° 210° 7 kt METAR EDWE 260020Z AUTO 21007KT 180V240 9999 // OVC070/// 12/08 Q1006
01:50
V
12 °C 10 km+ 7.100 ft 210° 210° 9 kt METAR EDWE 252350Z AUTO 21009KT 9999 // OVC071/// 12/08 Q1006
01:20
V
12 °C 10 km+ 7.300 ft 210° 210° 7 kt METAR EDWE 252320Z AUTO 21007KT 9999 // SCT042/// SCT049/// OVC073/// 12/08 Q1007
00:50
V
12 °C 10 km+ 7.200 ft 210° 210° 5 kt METAR EDWE 252250Z AUTO 21005KT 180V240 9999 // FEW058/// OVC072/// 12/08 Q1007
00:20
V
12 °C 10 km+ 6.600 ft 210° 210° 5 kt METAR EDWE 252220Z AUTO 21005KT 190V250 9999 // BKN066/// BKN220/// 12/08 Q1008

2022年9月25日

时间 代码 天气 温度 能见度 天花板 METAR/SPECI
23:50
V
11 °C 10 km+ 7.000 ft 220° 220° 4 kt METAR EDWE 252150Z AUTO 22004KT 9999 // OVC070/// 11/08 Q1009
23:20
V
12 °C 10 km+ 7.000 ft 220° 220° 4 kt METAR EDWE 252120Z AUTO 22004KT 9999 // BKN070/// OVC240/// 12/08 Q1009
22:50
V
11 °C 10 km+ 21.000 ft 210° 210° 4 kt METAR EDWE 252050Z AUTO 21004KT 9999 // SCT068/// BKN210/// 11/08 Q1009
22:20
V
11 °C 10 km+ 24.000 ft 220° 220° 5 kt METAR EDWE 252020Z AUTO 22005KT 9999 // FEW068/// BKN240/// 11/08 Q1010
21:50
V
11 °C 10 km+ 24.000 ft 220° 220° 4 kt METAR EDWE 251950Z AUTO 22004KT 9999 // BKN240/// 11/08 Q1010
21:20
V
11 °C 10 km+ - 220° 220° 4 kt METAR EDWE 251920Z AUTO 22004KT 9999 // SCT070/// 11/08 Q1010
20:50
V
12 °C 10 km+ 6.800 ft 230° 230° 4 kt METAR EDWE 251850Z AUTO 23004KT 9999 // OVC068/// 12/08 Q1010
较旧的数据

我们和第三方通过cookies跟踪您在我们网站上的上网行为。如果您继续,我们认为您同意我们的cookie政策。 了解更多